createdAt,value
2024-02-26T00:01:35.340Z,12.80
2024-02-26T00:04:04.045Z,13.87
2024-02-26T00:06:32.601Z,14.75
2024-02-26T00:09:00.555Z,13.70
2024-02-26T00:11:28.412Z,13.02
2024-02-26T00:13:57.262Z,16.60
2024-02-26T00:16:25.321Z,13.47
2024-02-26T00:18:53.201Z,16.27
2024-02-26T00:21:21.269Z,19.70
2024-02-26T00:23:50.606Z,14.23
2024-02-26T00:26:18.660Z,15.57
2024-02-26T00:28:46.545Z,13.30
2024-02-26T00:31:14.198Z,14.05
2024-02-26T00:33:42.120Z,12.65
2024-02-26T00:36:10.253Z,16.85
2024-02-26T00:38:38.292Z,13.63
2024-02-26T00:41:05.976Z,15.87
2024-02-26T00:43:33.756Z,13.40
2024-02-26T00:46:01.839Z,16.33
2024-02-26T00:48:29.821Z,15.07
2024-02-26T00:50:57.783Z,17.90
2024-02-26T00:53:26.306Z,13.50
2024-02-26T00:55:54.020Z,15.07
2024-02-26T00:58:21.681Z,15.52
2024-02-26T01:00:49.351Z,14.88
2024-02-26T01:03:16.875Z,17.45
2024-02-26T01:05:44.628Z,15.47
2024-02-26T01:08:12.349Z,14.82
2024-02-26T01:10:40.082Z,14.02
2024-02-26T01:13:09.047Z,15.32
2024-02-26T01:15:36.702Z,13.98
2024-02-26T01:18:04.408Z,15.13
2024-02-26T01:20:32.113Z,14.85
2024-02-26T01:22:59.645Z,14.60
2024-02-26T01:25:27.294Z,16.30
2024-02-26T01:27:54.936Z,15.45
2024-02-26T01:30:22.719Z,14.93
2024-02-26T01:32:50.324Z,14.23
2024-02-26T01:35:18.267Z,13.15
2024-02-26T01:37:45.835Z,14.93
2024-02-26T01:40:14.205Z,15.88
2024-02-26T01:42:42.985Z,15.50
2024-02-26T01:45:17.345Z,16.35
2024-02-26T01:47:47.230Z,16.08
2024-02-26T01:50:15.744Z,15.13
2024-02-26T01:52:43.811Z,16.08
2024-02-26T01:55:11.822Z,15.10
2024-02-26T01:57:39.646Z,16.27
2024-02-26T02:00:09.635Z,17.60
2024-02-26T02:02:37.787Z,17.35
2024-02-26T02:05:06.540Z,13.88
2024-02-26T02:07:34.542Z,15.37
2024-02-26T02:10:02.167Z,13.88
2024-02-26T02:12:29.840Z,13.55
2024-02-26T02:14:57.559Z,15.25
2024-02-26T02:17:25.535Z,16.85
2024-02-26T02:19:53.491Z,14.40
2024-02-26T02:22:21.107Z,14.65
2024-02-26T02:24:48.633Z,17.23
2024-02-26T02:27:16.132Z,15.65
2024-02-26T02:29:43.705Z,14.50
2024-02-26T02:32:11.354Z,14.97
2024-02-26T02:34:39.140Z,17.95
2024-02-26T02:37:06.976Z,12.48
2024-02-26T02:39:35.017Z,13.95
2024-02-26T02:42:02.633Z,16.52
2024-02-26T02:44:30.270Z,13.57
2024-02-26T02:46:58.306Z,14.23
2024-02-26T02:49:26.210Z,14.57
2024-02-26T02:51:55.569Z,14.60
2024-02-26T02:54:23.244Z,13.00
2024-02-26T02:56:51.075Z,14.97
2024-02-26T02:59:18.821Z,17.77
2024-02-26T03:01:46.689Z,13.45
2024-02-26T03:04:14.484Z,13.32
2024-02-26T03:06:42.165Z,15.73
2024-02-26T03:09:09.947Z,15.20
2024-02-26T03:11:37.833Z,15.20
2024-02-26T03:14:06.368Z,15.38
2024-02-26T03:16:34.115Z,14.18
2024-02-26T03:19:01.796Z,13.82
2024-02-26T03:21:29.578Z,14.63
2024-02-26T03:23:58.774Z,15.68
2024-02-26T03:26:26.582Z,15.38
2024-02-26T03:28:54.285Z,14.27
2024-02-26T03:31:22.986Z,15.05
2024-02-26T03:33:50.719Z,15.70
2024-02-26T03:36:18.577Z,14.93
2024-02-26T03:38:46.361Z,14.15
2024-02-26T03:41:14.228Z,13.73
2024-02-26T03:43:41.782Z,16.20
2024-02-26T03:46:10.594Z,16.37
2024-02-26T03:48:38.543Z,14.95
2024-02-26T03:51:06.528Z,15.05
2024-02-26T03:53:34.183Z,14.18
2024-02-26T03:56:05.625Z,13.70
2024-02-26T03:58:33.856Z,15.70
2024-02-26T04:01:02.050Z,15.00
2024-02-26T04:03:30.019Z,15.02
2024-02-26T04:05:57.792Z,16.73
2024-02-26T04:08:25.466Z,17.25
2024-02-26T04:10:53.477Z,14.27
2024-02-26T04:13:21.323Z,16.52
2024-02-26T04:15:49.042Z,13.80
2024-02-26T04:18:17.055Z,17.42
2024-02-26T04:20:44.875Z,15.02
2024-02-26T04:23:12.593Z,16.37
2024-02-26T04:25:40.415Z,16.98
2024-02-26T04:28:08.292Z,15.80
2024-02-26T04:30:36.128Z,15.48
2024-02-26T04:33:04.202Z,15.88
2024-02-26T04:35:32.238Z,12.83
2024-02-26T04:38:00.688Z,18.20
2024-02-26T04:40:28.861Z,15.93
2024-02-26T04:42:57.006Z,18.05
2024-02-26T04:45:24.740Z,15.32
2024-02-26T04:47:52.683Z,18.47
2024-02-26T04:50:20.423Z,21.33
2024-02-26T04:52:48.198Z,21.30
2024-02-26T04:55:15.968Z,24.40
2024-02-26T04:57:44.158Z,27.55
2024-02-26T05:00:12.820Z,19.87
2024-02-26T05:02:41.078Z,21.98
2024-02-26T05:05:10.134Z,19.27
2024-02-26T05:07:42.620Z,18.90
2024-02-26T05:10:10.936Z,24.23
2024-02-26T05:12:38.778Z,20.47
2024-02-26T05:15:07.050Z,19.27
2024-02-26T05:17:35.153Z,18.17
2024-02-26T05:20:03.790Z,21.38
2024-02-26T05:22:31.447Z,21.45
2024-02-26T05:24:59.346Z,20.33
2024-02-26T05:27:27.017Z,20.70
2024-02-26T05:29:55.639Z,21.83
2024-02-26T05:32:23.393Z,23.50
2024-02-26T05:34:51.044Z,28.33
2024-02-26T05:37:18.603Z,23.27
2024-02-26T05:39:46.310Z,20.85
2024-02-26T05:42:14.101Z,24.20
2024-02-26T05:44:41.937Z,24.10
2024-02-26T05:47:09.465Z,18.10
2024-02-26T05:49:37.336Z,18.53
2024-02-26T05:52:05.205Z,23.17
2024-02-26T05:54:33.449Z,18.80
2024-02-26T05:57:01.341Z,18.30
2024-02-26T05:59:29.487Z,19.45
2024-02-26T06:01:57.540Z,21.70
2024-02-26T06:04:26.292Z,22.88
2024-02-26T06:06:54.586Z,24.55
2024-02-26T06:09:22.720Z,21.15
2024-02-26T06:11:51.456Z,25.30
2024-02-26T06:14:21.127Z,21.27
2024-02-26T06:16:50.090Z,22.45
2024-02-26T06:19:18.649Z,21.10
2024-02-26T06:21:46.582Z,22.98
2024-02-26T06:24:15.805Z,21.63
2024-02-26T06:26:44.500Z,21.87
2024-02-26T06:29:12.129Z,21.77
2024-02-26T06:31:40.015Z,22.10
2024-02-26T06:34:07.657Z,22.73
2024-02-26T06:36:36.109Z,18.92
2024-02-26T06:39:04.215Z,23.97
2024-02-26T06:41:33.106Z,19.55
2024-02-26T06:44:02.713Z,18.85
2024-02-26T06:46:33.383Z,19.83
2024-02-26T06:49:07.059Z,25.10
2024-02-26T06:51:35.917Z,20.10
2024-02-26T06:54:04.063Z,22.38
2024-02-26T06:56:33.023Z,16.45
2024-02-26T06:59:02.182Z,17.60
2024-02-26T07:01:33.390Z,16.27
2024-02-26T07:04:08.338Z,17.20
2024-02-26T07:06:53.723Z,16.48
2024-02-26T07:14:04.501Z,15.75
2024-02-26T07:16:50.329Z,15.48
2024-02-26T07:19:28.992Z,16.43
2024-02-26T07:22:10.184Z,17.10
2024-02-26T07:24:42.358Z,15.68
2024-02-26T07:27:17.743Z,10.25
2024-02-26T07:29:52.653Z,16.42
2024-02-26T07:32:27.402Z,14.93
2024-02-26T07:35:06.649Z,13.98
2024-02-26T07:37:41.328Z,12.85
2024-02-26T07:40:16.144Z,13.68
2024-02-26T07:42:49.763Z,12.77
2024-02-26T07:45:21.471Z,8.53
2024-02-26T07:47:50.018Z,12.05
2024-02-26T07:50:22.622Z,11.23
2024-02-26T07:53:30.291Z,12.38
2024-02-26T07:56:01.314Z,11.80
2024-02-26T07:58:29.950Z,10.97
2024-02-26T08:00:57.965Z,12.45
2024-02-26T08:03:29.112Z,9.27
2024-02-26T08:06:13.567Z,6.85
2024-02-26T08:11:47.676Z,9.60
2024-02-26T08:17:52.961Z,14.63
2024-02-26T08:20:27.613Z,11.02
2024-02-26T08:22:56.518Z,6.55
2024-02-26T08:25:27.337Z,10.10
2024-02-26T08:28:12.517Z,11.27
2024-02-26T08:30:48.653Z,9.85
2024-02-26T08:33:17.900Z,9.43
2024-02-26T08:35:48.438Z,9.98
2024-02-26T08:38:22.506Z,8.60
2024-02-26T08:40:56.605Z,10.40
2024-02-26T08:43:29.641Z,15.15
2024-02-26T08:46:02.356Z,15.77
2024-02-26T08:48:32.501Z,15.63
2024-02-26T08:51:00.757Z,7.57
2024-02-26T08:53:37.784Z,11.95
2024-02-26T08:56:10.167Z,8.07
2024-02-26T08:58:38.623Z,6.93
2024-02-26T09:01:09.767Z,8.65
2024-02-26T09:03:43.228Z,7.83
2024-02-26T09:06:15.769Z,7.57
2024-02-26T09:08:44.665Z,7.90
2024-02-26T09:11:13.022Z,5.72
2024-02-26T09:13:42.563Z,7.03
2024-02-26T09:16:11.463Z,8.17
2024-02-26T09:18:41.525Z,4.88
2024-02-26T09:21:11.323Z,6.32
2024-02-26T09:23:39.103Z,6.75
2024-02-26T09:26:08.195Z,5.45
2024-02-26T09:28:38.865Z,8.67
2024-02-26T09:31:15.289Z,5.55
2024-02-26T09:33:47.848Z,5.07
2024-02-26T09:36:16.706Z,4.00
2024-02-26T09:38:52.543Z,6.80
2024-02-26T09:41:32.053Z,7.37
2024-02-26T09:44:02.481Z,9.00
2024-02-26T09:46:31.852Z,7.00
2024-02-26T09:49:00.202Z,5.88
2024-02-26T09:51:32.550Z,4.25
2024-02-26T09:54:04.104Z,2.60
2024-02-26T09:56:33.947Z,7.70
2024-02-26T09:59:01.693Z,6.05
2024-02-26T10:01:37.520Z,3.25
2024-02-26T10:04:05.613Z,7.28
2024-02-26T10:06:34.838Z,4.63
2024-02-26T10:09:09.269Z,4.38
2024-02-26T10:11:46.241Z,6.57
2024-02-26T10:14:22.285Z,6.22
2024-02-26T10:16:55.415Z,3.53
2024-02-26T10:19:28.511Z,5.70
2024-02-26T10:22:01.803Z,6.28
2024-02-26T10:24:30.514Z,4.30
2024-02-26T10:26:58.371Z,5.13
2024-02-26T10:29:33.651Z,3.67
2024-02-26T10:32:06.103Z,4.97
2024-02-26T10:34:44.500Z,4.35
2024-02-26T10:37:13.236Z,5.00
2024-02-26T10:39:48.271Z,5.88
2024-02-26T10:42:21.279Z,4.55
2024-02-26T10:44:50.257Z,4.17
2024-02-26T10:47:18.154Z,3.40
2024-02-26T10:49:51.453Z,3.15
2024-02-26T10:52:21.759Z,4.70
2024-02-26T10:54:51.803Z,3.13
2024-02-26T10:57:21.774Z,5.73
2024-02-26T10:59:50.475Z,5.15
2024-02-26T11:02:19.918Z,3.97
2024-02-26T11:04:48.271Z,3.38
2024-02-26T11:07:22.189Z,4.00
2024-02-26T11:10:00.348Z,4.03
2024-02-26T11:12:46.765Z,2.63
2024-02-26T11:15:24.275Z,4.72
2024-02-26T11:18:13.529Z,3.13
2024-02-26T11:20:43.559Z,5.13
2024-02-26T11:23:12.983Z,5.93
2024-02-26T11:25:49.775Z,4.00
2024-02-26T11:28:21.013Z,4.68
2024-02-26T11:30:49.909Z,4.68
2024-02-26T11:33:17.696Z,2.35
2024-02-26T11:35:46.284Z,5.40
2024-02-26T11:38:27.632Z,6.20
2024-02-26T11:40:56.270Z,3.15
2024-02-26T11:44:06.679Z,2.65
2024-02-26T11:46:45.712Z,6.38
2024-02-26T11:49:28.622Z,3.60
2024-02-26T11:51:57.623Z,4.65
2024-02-26T11:54:42.389Z,3.40
2024-02-26T11:57:36.306Z,3.70
2024-02-26T12:00:27.965Z,1.58
2024-02-26T12:03:09.874Z,2.50
2024-02-26T12:05:38.593Z,3.65
2024-02-26T12:08:10.371Z,3.22
2024-02-26T12:10:41.301Z,2.58
2024-02-26T12:13:20.342Z,1.90
2024-02-26T12:15:59.679Z,3.97
2024-02-26T12:18:27.711Z,2.17
2024-02-26T12:21:04.591Z,3.38
2024-02-26T12:23:34.077Z,1.95
2024-02-26T12:26:05.852Z,2.28
2024-02-26T12:28:39.783Z,3.13
2024-02-26T12:31:11.463Z,2.78
2024-02-26T12:33:40.014Z,2.22
2024-02-26T12:36:18.885Z,2.33
2024-02-26T12:38:46.816Z,2.53
2024-02-26T12:41:15.190Z,2.97
2024-02-26T12:43:43.281Z,2.72
2024-02-26T12:46:12.374Z,5.35
2024-02-26T12:48:41.581Z,2.05
2024-02-26T12:51:11.978Z,1.92
2024-02-26T12:53:40.398Z,4.50
2024-02-26T12:56:11.293Z,3.88
2024-02-26T12:58:40.672Z,2.83
2024-02-26T13:01:08.929Z,3.80
2024-02-26T13:03:37.174Z,2.08
2024-02-26T13:06:08.683Z,3.43
2024-02-26T13:08:37.138Z,5.43
2024-02-26T13:11:06.073Z,3.83
2024-02-26T13:13:34.619Z,2.85
2024-02-26T13:16:08.547Z,6.03
2024-02-26T13:18:45.145Z,4.57
2024-02-26T13:21:17.052Z,3.20
2024-02-26T13:23:47.729Z,3.42
2024-02-26T13:26:16.104Z,4.78
2024-02-26T13:28:46.963Z,5.50
2024-02-26T13:31:14.930Z,6.10
2024-02-26T13:33:43.896Z,6.32
2024-02-26T13:36:16.455Z,5.70
2024-02-26T13:38:56.101Z,6.45
2024-02-26T13:41:24.937Z,2.95
2024-02-26T13:43:55.878Z,3.53
2024-02-26T13:46:23.651Z,3.28
2024-02-26T13:48:51.423Z,4.07
2024-02-26T13:51:19.180Z,3.03
2024-02-26T13:53:47.418Z,4.43
2024-02-26T13:56:15.328Z,2.73
2024-02-26T13:58:42.964Z,5.95
2024-02-26T14:01:10.698Z,4.15
2024-02-26T14:03:38.616Z,6.55
2024-02-26T14:06:06.925Z,5.55
2024-02-26T14:08:34.974Z,6.70
2024-02-26T14:11:03.164Z,4.93
2024-02-26T14:13:30.708Z,2.97
2024-02-26T14:15:58.691Z,4.53
2024-02-26T14:18:26.506Z,5.88
2024-02-26T14:20:54.313Z,5.27
2024-02-26T14:23:22.056Z,6.07
2024-02-26T14:25:50.196Z,6.95
2024-02-26T14:28:22.086Z,5.20
2024-02-26T14:30:54.224Z,7.80
2024-02-26T14:33:21.929Z,8.63
2024-02-26T14:35:49.866Z,2.85
2024-02-26T14:38:18.591Z,3.28
2024-02-26T14:40:47.256Z,3.55
2024-02-26T14:43:17.458Z,2.83
2024-02-26T14:45:48.610Z,4.03
2024-02-26T14:48:16.424Z,3.08
2024-02-26T14:50:44.172Z,5.60
2024-02-26T14:53:12.271Z,6.03
2024-02-26T14:55:41.975Z,3.70
2024-02-26T14:58:12.415Z,4.40
2024-02-26T15:00:40.420Z,6.18
2024-02-26T15:03:09.783Z,5.88
2024-02-26T15:05:37.667Z,3.38
2024-02-26T15:08:05.960Z,1.75
2024-02-26T15:10:33.941Z,5.33
2024-02-26T15:13:01.490Z,3.30
2024-02-26T15:15:29.365Z,6.18
2024-02-26T15:17:57.529Z,3.85
2024-02-26T15:20:25.693Z,4.82
2024-02-26T15:22:53.395Z,4.47
2024-02-26T15:25:20.940Z,4.38
2024-02-26T15:27:48.504Z,3.55
2024-02-26T15:30:17.604Z,2.92
2024-02-26T15:32:46.007Z,3.47
2024-02-26T15:35:13.694Z,3.40
2024-02-26T15:37:41.594Z,6.07
2024-02-26T15:40:10.183Z,4.35
2024-02-26T15:42:37.964Z,5.60
2024-02-26T15:45:06.326Z,4.20
2024-02-26T15:47:34.081Z,4.20
2024-02-26T15:50:03.289Z,5.15
2024-02-26T15:52:31.356Z,3.30
2024-02-26T15:54:59.146Z,5.05
2024-02-26T15:57:27.152Z,5.50
2024-02-26T15:59:55.396Z,2.97
2024-02-26T16:02:23.205Z,4.53
2024-02-26T16:04:50.710Z,4.32
2024-02-26T16:07:25.630Z,3.72
2024-02-26T16:09:54.446Z,5.53
2024-02-26T16:12:44.275Z,5.47
2024-02-26T16:15:12.339Z,5.45
2024-02-26T16:17:48.468Z,4.20
2024-02-26T16:20:17.330Z,6.13
2024-02-26T16:22:45.105Z,2.85
2024-02-26T16:25:12.899Z,7.57
2024-02-26T16:27:42.040Z,3.90
2024-02-26T16:30:10.589Z,4.00
2024-02-26T16:32:42.128Z,3.90
2024-02-26T16:35:12.186Z,5.88
2024-02-26T16:37:40.066Z,10.67
2024-02-26T16:40:11.358Z,13.32
2024-02-26T16:42:39.420Z,8.68
2024-02-26T16:45:07.936Z,8.77
2024-02-26T16:47:37.521Z,7.18
2024-02-26T16:50:07.600Z,3.30
2024-02-26T16:52:37.095Z,11.00
2024-02-26T16:55:06.832Z,7.45
2024-02-26T16:57:34.816Z,5.07
2024-02-26T17:00:02.836Z,9.15
2024-02-26T17:02:30.676Z,8.90
2024-02-26T17:04:58.700Z,6.25
2024-02-26T17:07:26.733Z,4.35
2024-02-26T17:09:56.165Z,7.07
2024-02-26T17:12:23.930Z,6.35
2024-02-26T17:14:53.283Z,5.67
2024-02-26T17:17:21.213Z,8.80
2024-02-26T17:19:48.897Z,7.78
2024-02-26T17:22:16.614Z,5.95
2024-02-26T17:24:45.674Z,5.00
2024-02-26T17:27:13.795Z,8.53
2024-02-26T17:29:42.029Z,4.82
2024-02-26T17:32:11.392Z,6.38
2024-02-26T17:34:43.491Z,5.13
2024-02-26T17:37:11.380Z,8.15
2024-02-26T17:39:39.087Z,6.77
2024-02-26T17:42:07.013Z,7.35
2024-02-26T17:44:41.125Z,9.07
2024-02-26T17:47:08.916Z,5.47
2024-02-26T17:49:36.718Z,6.00
2024-02-26T17:52:05.969Z,5.83
2024-02-26T17:54:34.906Z,5.15
2024-02-26T17:57:02.756Z,5.35
2024-02-26T17:59:30.804Z,6.85
2024-02-26T18:01:58.661Z,5.75
2024-02-26T18:04:27.296Z,7.43
2024-02-26T18:06:55.245Z,6.45
2024-02-26T18:09:23.432Z,8.98
2024-02-26T18:11:54.638Z,8.02
2024-02-26T18:14:22.669Z,11.57
2024-02-26T18:16:50.824Z,7.40
2024-02-26T18:19:18.779Z,7.85
2024-02-26T18:21:46.566Z,8.32
2024-02-26T18:24:16.164Z,7.80
2024-02-26T18:26:45.045Z,9.80
2024-02-26T18:29:13.341Z,10.80
2024-02-26T18:31:41.808Z,8.35
2024-02-26T18:34:09.990Z,7.30
2024-02-26T18:36:37.777Z,6.95
2024-02-26T18:39:05.704Z,4.95
2024-02-26T18:41:34.435Z,7.30
2024-02-26T18:44:02.418Z,7.32
2024-02-26T18:46:30.249Z,8.95
2024-02-26T18:48:58.114Z,5.57
2024-02-26T18:51:26.328Z,7.80
2024-02-26T18:53:54.351Z,5.00
2024-02-26T18:56:24.410Z,5.45
2024-02-26T18:58:52.383Z,6.97
2024-02-26T19:01:21.380Z,6.57
2024-02-26T19:03:49.133Z,4.80
2024-02-26T19:06:16.908Z,6.67
2024-02-26T19:08:44.933Z,7.03
2024-02-26T19:11:12.777Z,6.70
2024-02-26T19:13:41.104Z,7.90
2024-02-26T19:16:08.694Z,6.63
2024-02-26T19:18:37.834Z,5.70
2024-02-26T19:21:06.029Z,7.53
2024-02-26T19:23:35.197Z,6.15
2024-02-26T19:26:03.053Z,5.15
2024-02-26T19:28:31.670Z,6.88
2024-02-26T19:30:59.452Z,6.43
2024-02-26T19:33:28.568Z,5.32
2024-02-26T19:35:56.774Z,5.93
2024-02-26T19:38:24.730Z,6.00
2024-02-26T19:40:52.237Z,7.55
2024-02-26T19:43:19.877Z,5.97
2024-02-26T19:45:47.693Z,5.80
2024-02-26T19:48:16.110Z,7.07
2024-02-26T19:50:45.987Z,6.43
2024-02-26T19:53:13.609Z,6.95
2024-02-26T19:55:41.299Z,6.17
2024-02-26T19:58:09.162Z,4.78
2024-02-26T20:00:37.148Z,5.15
2024-02-26T20:03:07.175Z,5.85
2024-02-26T20:05:35.092Z,8.43
2024-02-26T20:08:02.755Z,8.73
2024-02-26T20:10:30.416Z,8.32
2024-02-26T20:12:59.633Z,6.43
2024-02-26T20:15:27.385Z,8.90
2024-02-26T20:17:55.212Z,6.55
2024-02-26T20:20:27.703Z,7.17
2024-02-26T20:22:55.461Z,6.00
2024-02-26T20:25:23.197Z,6.28
2024-02-26T20:27:50.894Z,6.13
2024-02-26T20:30:18.839Z,6.40
2024-02-26T20:32:46.865Z,7.13
2024-02-26T20:35:15.007Z,7.72
2024-02-26T20:37:43.508Z,8.90
2024-02-26T20:40:12.388Z,7.75
2024-02-26T20:42:40.806Z,8.00
2024-02-26T20:45:09.255Z,7.70
2024-02-26T20:47:37.025Z,7.07
2024-02-26T20:50:06.700Z,8.70
2024-02-26T20:52:35.111Z,7.82
2024-02-26T20:55:02.703Z,7.22
2024-02-26T20:57:30.392Z,7.53
2024-02-26T20:59:59.868Z,7.07
2024-02-26T21:02:33.831Z,8.63
2024-02-26T21:05:04.313Z,8.27
2024-02-26T21:07:32.473Z,8.43
2024-02-26T21:10:00.208Z,7.87
2024-02-26T21:12:28.335Z,8.85
2024-02-26T21:14:56.075Z,8.60
2024-02-26T21:17:23.784Z,10.68
2024-02-26T21:19:53.045Z,7.28
2024-02-26T21:22:21.066Z,8.87
2024-02-26T21:24:48.936Z,9.50
2024-02-26T21:27:17.634Z,9.85
2024-02-26T21:29:45.639Z,12.73
2024-02-26T21:32:13.493Z,14.98
2024-02-26T21:34:42.288Z,9.53
2024-02-26T21:37:10.494Z,11.30
2024-02-26T21:39:38.868Z,15.02
2024-02-26T21:42:07.360Z,11.48
2024-02-26T21:44:34.895Z,10.45
2024-02-26T21:47:03.979Z,11.20
2024-02-26T21:49:31.857Z,9.25
2024-02-26T21:51:59.992Z,8.70
2024-02-26T21:54:28.370Z,7.93
2024-02-26T21:56:56.118Z,6.72
2024-02-26T21:59:24.152Z,7.53
2024-02-26T22:01:52.123Z,11.35
2024-02-26T22:04:19.970Z,7.20
2024-02-26T22:06:49.763Z,8.35
2024-02-26T22:09:18.042Z,10.02
2024-02-26T22:11:45.649Z,11.20
2024-02-26T22:14:13.180Z,9.90
2024-02-26T22:16:40.738Z,9.15
2024-02-26T22:19:08.453Z,7.07
2024-02-26T22:21:36.205Z,6.40
2024-02-26T22:24:04.222Z,7.40
2024-02-26T22:26:32.110Z,6.55
2024-02-26T22:28:59.893Z,7.35
2024-02-26T22:31:29.175Z,7.50
2024-02-26T22:33:57.653Z,6.85
2024-02-26T22:36:25.510Z,6.97
2024-02-26T22:38:53.374Z,6.25
2024-02-26T22:41:21.608Z,6.40
2024-02-26T22:43:49.314Z,6.30
2024-02-26T22:46:16.781Z,6.38
2024-02-26T22:48:44.690Z,6.57
2024-02-26T22:51:14.210Z,6.60
2024-02-26T22:53:41.922Z,8.88
2024-02-26T22:56:09.505Z,6.65
2024-02-26T22:58:37.041Z,9.48
2024-02-26T23:01:04.921Z,8.97
2024-02-26T23:03:32.571Z,7.97
2024-02-26T23:06:00.158Z,8.07
2024-02-26T23:08:27.774Z,7.22
2024-02-26T23:10:55.346Z,5.90
2024-02-26T23:13:22.881Z,6.80
2024-02-26T23:15:54.195Z,5.47
2024-02-26T23:18:22.906Z,4.50
2024-02-26T23:20:50.424Z,6.60
2024-02-26T23:23:17.856Z,7.80
2024-02-26T23:25:45.452Z,5.27
2024-02-26T23:28:13.485Z,6.82
2024-02-26T23:30:41.199Z,6.78
2024-02-26T23:33:09.163Z,5.70
2024-02-26T23:35:37.245Z,7.75
2024-02-26T23:38:04.889Z,6.73
2024-02-26T23:40:35.341Z,9.20
2024-02-26T23:43:03.156Z,11.80
2024-02-26T23:45:30.814Z,9.20
2024-02-26T23:47:58.736Z,7.03
2024-02-26T23:50:28.935Z,7.27
2024-02-26T23:52:56.609Z,7.63
2024-02-26T23:55:24.089Z,9.63
2024-02-26T23:57:51.487Z,6.78
